Wetterdaten: Woche 31.10.05 - 06.11.05 (KW44)
Datum Zeit Temperatur Luftfeuchte Luftdruck Niederschlag Wind Richtung Sonne Helligkeit Taupunkt Windchill
31.10.2005 00:00 5.9 C 99 % 1019.2 hPa 0.0 l/m 0.0 km/h (0 Bft) N 0.00 h 0 lux 5.7 C 5.9 C
31.10.2005 01:00 6.9 C 99 % 1019.6 hPa 0.0 l/m 0.0 km/h (0 Bft) N 0.00 h 0 lux 6.9 C 6.9 C
31.10.2005 02:00 7.0 C 100 % 1018.8 hPa 0.0 l/m 0.0 km/h (0 Bft) N 0.00 h 0 lux 7.0 C 7.0 C
31.10.2005 03:00 7.1 C 100 % 1018.4 hPa 0.0 l/m 0.0 km/h (0 Bft) N 0.00 h 0 lux 7.1 C 7.1 C
31.10.2005 04:00 7.5 C 100 % 1018.5 hPa 0.0 l/m 2.2 km/h (1 Bft) O 0.00 h 0 lux 7.5 C 7.2 C
31.10.2005 05:00 7.4 C 100 % 1018.6 hPa 0.0 l/m 1.6 km/h (1 Bft) O-SO 0.00 h 0 lux 7.4 C 7.1 C
31.10.2005 06:00 7.5 C 100 % 1017.6 hPa 0.0 l/m 0.9 km/h (0 Bft) O-SO 0.00 h 67 lux 7.5 C 7.3 C
31.10.2005 07:00 7.5 C 100 % 1017.5 hPa 0.0 l/m 2.5 km/h (1 Bft) O-SO 0.00 h 1.24 klux 7.5 C 7.0 C
31.10.2005 08:00 8.3 C 100 % 1017.4 hPa 0.0 l/m 3.8 km/h (1 Bft) O-SO 0.00 h 5.85 klux 8.3 C 7.6 C
31.10.2005 09:00 9.8 C 98 % 1017.1 hPa 0.0 l/m 0.6 km/h (0 Bft) O 0.00 h 14.8 klux 9.5 C 9.7 C
31.10.2005 10:00 10.6 C 91 % 1016.0 hPa 0.0 l/m 6.0 km/h (2 Bft) O-SO 0.10 h 23.0 klux 9.1 C 10.6 C
31.10.2005 11:00 12.5 C 75 % 1015.6 hPa 0.0 l/m 5.2 km/h (1 Bft) O-SO 0.40 h 39.7 klux 8.2 C 12.5 C
31.10.2005 12:00 13.8 C 70 % 1014.4 hPa 0.0 l/m 3.9 km/h (1 Bft) O-SO 0.47 h 38.6 klux 8.4 C 13.8 C
31.10.2005 13:00 14.9 C 66 % 1013.4 hPa 0.0 l/m 1.0 km/h (0 Bft) O-SO 0.37 h 33.3 klux 8.5 C 14.9 C
31.10.2005 14:00 14.7 C 68 % 1012.5 hPa 0.0 l/m 0.0 km/h (0 Bft) N 0.00 h 14.5 klux 8.8 C 14.7 C
31.10.2005 15:00 14.4 C 71 % 1012.5 hPa 0.0 l/m 0.0 km/h (0 Bft) N 0.00 h 8.72 klux 9.3 C 14.4 C
31.10.2005 16:00 13.3 C 78 % 1013.6 hPa 0.0 l/m 0.1 km/h (0 Bft) N 0.00 h 757 lux 9.5 C 13.3 C
31.10.2005 17:00 12.8 C 82 % 1013.7 hPa 0.0 l/m 3.6 km/h (1 Bft) O 0.00 h 131 lux 9.8 C 12.8 C
31.10.2005 18:00 12.7 C 82 % 1014.4 hPa 0.0 l/m 4.7 km/h (1 Bft) O-SO 0.00 h 0 lux 9.7 C 12.7 C
31.10.2005 19:00 12.5 C 82 % 1014.8 hPa 0.0 l/m 1.6 km/h (1 Bft) O-SO 0.00 h 0 lux 9.5 C 12.5 C
31.10.2005 20:00 12.4 C 82 % 1014.5 hPa 0.0 l/m 2.7 km/h (1 Bft) O 0.00 h 0 lux 9.4 C 12.4 C
31.10.2005 21:00 12.2 C 85 % 1014.3 hPa 0.0 l/m 1.9 km/h (1 Bft) O-SO 0.00 h 0 lux 9.7 C 12.2 C
31.10.2005 22:00 12.0 C 87 % 1014.0 hPa 0.0 l/m 2.0 km/h (1 Bft) O-SO 0.00 h 0 lux 9.9 C 12.0 C
31.10.2005 23:00 12.0 C 87 % 1014.4 hPa 0.0 l/m 2.2 km/h (1 Bft) W-NW 0.00 h 0 lux 9.9 C 12.0 C
01.11.2005 00:00 12.1 C 86 % 1014.5 hPa 0.0 l/m 3.7 km/h (1 Bft) O-SO 0.00 h 0 lux 9.8 C 12.1 C
01.11.2005 01:00 11.9 C 87 % 1014.8 hPa 0.0 l/m 2.5 km/h (1 Bft) O 0.00 h 0 lux 9.9 C 11.9 C
01.11.2005 02:00 12.0 C 86 % 1014.8 hPa 0.0 l/m 7.1 km/h (2 Bft) O-SO 0.00 h 0 lux 9.7 C 12.0 C
01.11.2005 03:00 13.3 C 82 % 1015.5 hPa 0.0 l/m 2.1 km/h (1 Bft) O-SO 0.00 h 0 lux 10.4 C 13.3 C
01.11.2005 04:00 14.6 C 78 % 1016.3 hPa 0.0 l/m 5.8 km/h (2 Bft) NW 0.00 h 0 lux 10.7 C 14.6 C
01.11.2005 05:00 15.3 C 75 % 1017.1 hPa 0.0 l/m 12.9 km/h (3 Bft) W-NW 0.00 h 0 lux 10.8 C 15.3 C
01.11.2005 06:00 14.5 C 80 % 1017.6 hPa 0.0 l/m 4.6 km/h (1 Bft) W-NW 0.00 h 0 lux 11.0 C 14.5 C
01.11.2005 07:00 13.0 C 88 % 1018.7 hPa 0.3 l/m 0.5 km/h (0 Bft) S 0.00 h 526 lux 11.0 C 13.0 C
01.11.2005 08:00 12.8 C 92 % 1019.6 hPa 0.0 l/m 0.7 km/h (0 Bft) SO 0.00 h 2.33 klux 11.5 C 12.8 C
01.11.2005 09:00 13.6 C 87 % 1019.8 hPa 0.0 l/m 8.3 km/h (2 Bft) W-NW 0.00 h 10.8 klux 11.6 C 13.6 C
01.11.2005 10:00 14.0 C 78 % 1019.7 hPa 0.0 l/m 9.2 km/h (2 Bft) W-NW 0.00 h 14.1 klux 10.2 C 14.0 C
01.11.2005 11:00 14.5 C 73 % 1019.8 hPa 0.0 l/m 10.8 km/h (2 Bft) W-NW 0.00 h 20.2 klux 9.6 C 14.5 C
01.11.2005 12:00 15.3 C 68 % 1019.6 hPa 0.0 l/m 12.2 km/h (2 Bft) W-NW 0.32 h 33.0 klux 9.4 C 15.3 C
01.11.2005 13:00 16.0 C 63 % 1019.5 hPa 0.0 l/m 13.5 km/h (3 Bft) W-NW 0.55 h 42.5 klux 9.1 C 16.0 C
01.11.2005 14:00 16.8 C 58 % 1018.7 hPa 0.0 l/m 10.0 km/h (2 Bft) W-NW 0.83 h 40.6 klux 8.5 C 16.8 C
01.11.2005 15:00 16.4 C 57 % 1018.5 hPa 0.0 l/m 8.0 km/h (2 Bft) W 1.00 h 32.7 klux 7.9 C 16.4 C
01.11.2005 16:00 14.7 C 62 % 1018.6 hPa 0.0 l/m 0.6 km/h (0 Bft) W 0.58 h 10.2 klux 7.6 C 14.7 C
01.11.2005 17:00 12.3 C 74 % 1019.7 hPa 0.0 l/m 4.6 km/h (1 Bft) O-SO 0.00 h 380 lux 7.8 C 12.3 C
01.11.2005 18:00 10.8 C 81 % 1020.4 hPa 0.0 l/m 5.0 km/h (1 Bft) O-SO 0.00 h 0 lux 7.8 C 10.8 C
01.11.2005 19:00 9.8 C 86 % 1021.3 hPa 0.0 l/m 4.4 km/h (1 Bft) O-SO 0.00 h 0 lux 7.5 C 9.6 C
01.11.2005 20:00 8.8 C 91 % 1021.5 hPa 0.0 l/m 2.0 km/h (1 Bft) O-SO 0.00 h 0 lux 7.5 C 8.7 C
01.11.2005 21:00 9.0 C 93 % 1021.5 hPa 0.0 l/m 0.7 km/h (0 Bft) O-SO 0.00 h 0 lux 7.9 C 9.0 C
01.11.2005 22:00 8.9 C 93 % 1021.3 hPa 0.0 l/m 1.0 km/h (0 Bft) O-SO 0.00 h 0 lux 7.9 C 8.8 C
01.11.2005 23:00 8.4 C 94 % 1021.3 hPa 0.0 l/m 2.0 km/h (1 Bft) O-SO 0.00 h 0 lux 7.5 C 8.2 C
02.11.2005 00:00 8.3 C 96 % 1021.6 hPa 0.0 l/m 0.3 km/h (0 Bft) O-SO 0.00 h 0 lux 7.7 C 8.3 C
02.11.2005 01:00 7.1 C 96 % 1021.7 hPa 0.0 l/m 0.1 km/h (0 Bft) N 0.00 h 0 lux 6.5 C 7.1 C
02.11.2005 02:00 6.1 C 97 % 1021.9 hPa 0.0 l/m 0.4 km/h (0 Bft) O-SO 0.00 h 0 lux 5.6 C 6.1 C
02.11.2005 03:00 6.0 C 98 % 1021.9 hPa 0.0 l/m 0.1 km/h (0 Bft) O-SO 0.00 h 0 lux 5.7 C 6.0 C
02.11.2005 04:00 7.1 C 99 % 1021.7 hPa 0.0 l/m 0.6 km/h (0 Bft) O-SO 0.00 h 0 lux 6.9 C 7.1 C
02.11.2005 05:00 7.6 C 100 % 1021.7 hPa 0.0 l/m 0.0 km/h (0 Bft) N 0.00 h 0 lux 7.5 C 7.6 C
02.11.2005 06:00 7.9 C 100 % 1021.6 hPa 0.0 l/m 0.0 km/h (0 Bft) N 0.00 h 47 lux 7.9 C 7.9 C
02.11.2005 07:00 8.3 C 100 % 1022.1 hPa 0.0 l/m 0.0 km/h (0 Bft) N 0.00 h 811 lux 8.3 C 8.3 C
02.11.2005 08:00 9.0 C 100 % 1022.5 hPa 0.0 l/m 0.0 km/h (0 Bft) N 0.00 h 4.72 klux 9.0 C 9.0 C
02.11.2005 09:00 9.6 C 99 % 1021.6 hPa 0.0 l/m 0.0 km/h (0 Bft) N 0.00 h 5.11 klux 9.5 C 9.6 C
02.11.2005 10:00 10.1 C 94 % 1021.6 hPa 0.0 l/m 0.5 km/h (0 Bft) O-SO 0.00 h 15.2 klux 9.1 C 10.1 C
02.11.2005 11:00 11.6 C 84 % 1021.1 hPa 0.0 l/m 0.3 km/h (0 Bft) O-SO 0.47 h 38.0 klux 9.0 C 11.6 C
02.11.2005 12:00 13.0 C 79 % 1020.9 hPa 0.0 l/m 0.2 km/h (0 Bft) N 0.00 h 23.9 klux 9.4 C 13.0 C
02.11.2005 13:00 14.5 C 72 % 1019.9 hPa 0.0 l/m 2.3 km/h (1 Bft) SO 0.17 h 28.7 klux 9.5 C 14.5 C
02.11.2005 14:00 15.3 C 67 % 1019.6 hPa 0.0 l/m 2.6 km/h (1 Bft) SO 0.37 h 26.9 klux 9.3 C 15.3 C
02.11.2005 15:00 16.0 C 63 % 1019.5 hPa 0.0 l/m 3.9 km/h (1 Bft) SO 0.63 h 22.0 klux 9.0 C 16.0 C
02.11.2005 16:00 14.7 C 68 % 1019.3 hPa 0.0 l/m 1.2 km/h (1 Bft) SO 0.37 h 8.56 klux 8.9 C 14.7 C
02.11.2005 17:00 12.5 C 76 % 1019.1 hPa 0.0 l/m 0.2 km/h (0 Bft) O-SO 0.00 h 221 lux 8.4 C 12.5 C
02.11.2005 18:00 11.5 C 82 % 1019.3 hPa 0.0 l/m 0.5 km/h (0 Bft) O-SO 0.00 h 0 lux 8.6 C 11.5 C
02.11.2005 19:00 10.5 C 85 % 1019.2 hPa 0.0 l/m 0.0 km/h (0 Bft) N 0.00 h 0 lux 8.1 C 10.5 C
02.11.2005 20:00 9.9 C 91 % 1019.3 hPa 0.0 l/m 0.0 km/h (0 Bft) N 0.00 h 0 lux 8.4 C 9.9 C
02.11.2005 21:00 9.7 C 93 % 1019.3 hPa 0.0 l/m 0.3 km/h (0 Bft) O-SO 0.00 h 0 lux 8.6 C 9.7 C
02.11.2005 22:00 9.7 C 94 % 1019.3 hPa 0.0 l/m 0.0 km/h (0 Bft) N 0.00 h 0 lux 8.8 C 9.7 C
02.11.2005 23:00 9.7 C 95 % 1018.7 hPa 0.0 l/m 0.2 km/h (0 Bft) O-SO 0.00 h 0 lux 8.9 C 9.7 C
03.11.2005 00:00 9.5 C 95 % 1018.3 hPa 0.0 l/m 0.6 km/h (0 Bft) O-SO 0.00 h 0 lux 8.7 C 9.5 C
03.11.2005 01:00 9.2 C 95 % 1018.3 hPa 0.0 l/m 0.4 km/h (0 Bft) O-SO 0.00 h 0 lux 8.5 C 9.2 C
03.11.2005 02:00 9.5 C 96 % 1018.7 hPa 0.0 l/m 0.5 km/h (0 Bft) O-SO 0.00 h 0 lux 8.9 C 9.5 C
03.11.2005 03:00 9.8 C 97 % 1019.3 hPa 0.3 l/m 3.6 km/h (1 Bft) O-SO 0.00 h 0 lux 9.3 C 9.3 C
03.11.2005 04:00 10.1 C 97 % 1019.5 hPa 1.3 l/m 3.9 km/h (1 Bft) O-SO 0.00 h 0 lux 9.6 C 9.8 C
03.11.2005 05:00 10.1 C 97 % 1020.3 hPa 0.0 l/m 1.3 km/h (1 Bft) O-SO 0.00 h 0 lux 9.6 C 10.1 C
03.11.2005 06:00 9.5 C 97 % 1020.4 hPa 0.0 l/m 0.1 km/h (0 Bft) N 0.00 h 45 lux 9.1 C 9.5 C
03.11.2005 07:00 8.8 C 98 % 1020.4 hPa 0.0 l/m 0.0 km/h (0 Bft) N 0.00 h 1.30 klux 8.6 C 8.8 C
03.11.2005 08:00 9.1 C 99 % 1021.2 hPa 0.3 l/m 0.0 km/h (0 Bft) N 0.67 h 14.8 klux 8.9 C 9.1 C
03.11.2005 09:00 10.3 C 100 % 1021.3 hPa 0.0 l/m 0.0 km/h (0 Bft) N 0.20 h 19.9 klux 10.3 C 10.3 C
03.11.2005 10:00 11.7 C 96 % 1021.0 hPa 0.0 l/m 0.1 km/h (0 Bft) O-SO 0.90 h 43.0 klux 11.2 C 11.7 C
03.11.2005 11:00 13.6 C 86 % 1019.8 hPa 0.0 l/m 0.4 km/h (0 Bft) NW 1.00 h 52.6 klux 11.3 C 13.6 C
03.11.2005 12:00 15.6 C 75 % 1018.9 hPa 0.0 l/m 5.9 km/h (2 Bft) S-SO 1.00 h 54.7 klux 11.2 C 15.6 C
03.11.2005 13:00 17.5 C 64 % 1018.1 hPa 0.0 l/m 5.7 km/h (1 Bft) SO 1.00 h 51.4 klux 10.7 C 17.5 C
03.11.2005 14:00 18.4 C 57 % 1017.1 hPa 0.0 l/m 5.6 km/h (1 Bft) O-SO 1.00 h 42.9 klux 9.8 C 18.4 C
03.11.2005 15:00 18.0 C 58 % 1017.1 hPa 0.0 l/m 1.9 km/h (1 Bft) SO 0.77 h 21.9 klux 9.6 C 18.0 C
03.11.2005 16:00 16.4 C 65 % 1017.3 hPa 0.0 l/m 1.6 km/h (1 Bft) O-SO 0.70 h 6.97 klux 9.8 C 16.4 C
03.11.2005 17:00 13.9 C 77 % 1017.7 hPa 0.0 l/m 0.5 km/h (0 Bft) O-SO 0.00 h 282 lux 9.9 C 13.9 C
03.11.2005 18:00 11.8 C 85 % 1018.3 hPa 0.0 l/m 0.9 km/h (0 Bft) O-SO 0.00 h 0 lux 9.3 C 11.8 C
03.11.2005 19:00 11.0 C 89 % 1019.1 hPa 0.0 l/m 2.5 km/h (1 Bft) O-SO 0.00 h 0 lux 9.2 C 11.0 C
03.11.2005 20:00 10.2 C 92 % 1019.2 hPa 0.0 l/m 1.6 km/h (1 Bft) O-SO 0.00 h 0 lux 9.0 C 10.2 C
03.11.2005 21:00 9.8 C 95 % 1019.3 hPa 0.0 l/m 0.7 km/h (0 Bft) O-SO 0.00 h 0 lux 9.0 C 9.8 C
03.11.2005 22:00 9.3 C 95 % 1019.0 hPa 0.0 l/m 0.0 km/h (0 Bft) N 0.00 h 0 lux 8.6 C 9.3 C
03.11.2005 23:00 9.1 C 95 % 1018.3 hPa 0.0 l/m 0.4 km/h (0 Bft) O-SO 0.00 h 0 lux 8.3 C 9.0 C
04.11.2005 00:00 9.0 C 96 % 1017.7 hPa 0.0 l/m 0.0 km/h (0 Bft) N 0.00 h 0 lux 8.4 C 9.0 C
04.11.2005 01:00 8.9 C 97 % 1017.3 hPa 0.0 l/m 0.5 km/h (0 Bft) O-SO 0.00 h 0 lux 8.5 C 8.9 C
04.11.2005 02:00 8.8 C 98 % 1016.8 hPa 0.0 l/m 2.0 km/h (1 Bft) O-SO 0.00 h 0 lux 8.5 C 8.7 C
04.11.2005 03:00 8.8 C 98 % 1016.3 hPa 0.0 l/m 0.9 km/h (0 Bft) O-SO 0.00 h 0 lux 8.5 C 8.7 C
04.11.2005 04:00 8.6 C 100 % 1016.3 hPa 0.0 l/m 3.1 km/h (1 Bft) O-SO 0.00 h 0 lux 8.5 C 8.2 C
04.11.2005 05:00 8.7 C 100 % 1016.3 hPa 0.0 l/m 1.7 km/h (1 Bft) O-SO 0.00 h 0 lux 8.6 C 8.5 C
04.11.2005 06:00 9.2 C 99 % 1016.4 hPa 0.0 l/m 4.2 km/h (1 Bft) O-SO 0.00 h 33 lux 9.1 C 8.8 C
04.11.2005 07:00 9.9 C 98 % 1017.2 hPa 0.0 l/m 2.4 km/h (1 Bft) O-SO 0.00 h 817 lux 9.5 C 9.7 C
04.11.2005 08:00 10.7 C 95 % 1017.9 hPa 0.0 l/m 0.0 km/h (0 Bft) N 0.00 h 4.69 klux 10.0 C 10.7 C
04.11.2005 09:00 11.3 C 92 % 1018.0 hPa 0.0 l/m 1.2 km/h (1 Bft) O-SO 0.00 h 5.30 klux 10.1 C 11.3 C
04.11.2005 10:00 11.6 C 93 % 1018.0 hPa 0.0 l/m 1.6 km/h (1 Bft) O-SO 0.00 h 7.35 klux 10.4 C 11.6 C
04.11.2005 11:00 12.1 C 90 % 1017.7 hPa 0.0 l/m 0.0 km/h (0 Bft) N 0.00 h 11.0 klux 10.6 C 12.1 C
04.11.2005 12:00 12.9 C 86 % 1016.8 hPa 0.0 l/m 1.3 km/h (1 Bft) W-NW 0.67 h 34.7 klux 10.7 C 12.9 C
04.11.2005 13:00 14.4 C 78 % 1016.0 hPa 0.0 l/m 3.4 km/h (1 Bft) W-NW 0.67 h 37.0 klux 10.6 C 14.4 C
04.11.2005 14:00 15.7 C 70 % 1016.4 hPa 0.0 l/m 0.3 km/h (0 Bft) W 0.67 h 30.1 klux 10.3 C 15.7 C
04.11.2005 15:00 16.3 C 66 % 1016.3 hPa 0.0 l/m 3.8 km/h (1 Bft) NW 0.18 h 12.6 klux 9.8 C 16.3 C
04.11.2005 16:00 15.5 C 64 % 1016.4 hPa 0.0 l/m 6.1 km/h (2 Bft) W-NW 0.00 h 3.87 klux 8.7 C 15.5 C
04.11.2005 17:00 14.2 C 70 % 1016.6 hPa 0.0 l/m 0.2 km/h (0 Bft) W-NW 0.00 h 122 lux 8.7 C 14.2 C
04.11.2005 18:00 13.2 C 75 % 1017.5 hPa 0.0 l/m 0.0 km/h (0 Bft) N 0.00 h 0 lux 8.8 C 13.2 C
04.11.2005 19:00 12.7 C 77 % 1017.8 hPa 0.0 l/m 0.8 km/h (0 Bft) W-NW 0.00 h 0 lux 8.7 C 12.7 C
04.11.2005 20:00 13.1 C 74 % 1018.5 hPa 0.0 l/m 3.6 km/h (1 Bft) W-NW 0.00 h 0 lux 8.6 C 13.1 C
04.11.2005 21:00 12.4 C 81 % 1018.9 hPa 0.6 l/m 1.2 km/h (1 Bft) W-NW 0.00 h 0 lux 9.1 C 12.4 C
04.11.2005 22:00 11.6 C 91 % 1019.9 hPa 1.0 l/m 0.4 km/h (0 Bft) W-NW 0.00 h 0 lux 10.1 C 11.6 C
04.11.2005 23:00 11.3 C 93 % 1020.1 hPa 1.0 l/m 0.4 km/h (0 Bft) W-NW 0.00 h 0 lux 10.3 C 11.3 C
05.11.2005 00:00 11.1 C 94 % 1020.2 hPa 0.3 l/m 13.2 km/h (3 Bft) W-NW 0.00 h 0 lux 10.2 C 11.1 C
05.11.2005 01:00 10.4 C 93 % 1021.3 hPa 0.3 l/m 16.1 km/h (3 Bft) W-NW 0.00 h 0 lux 9.3 C 10.4 C
05.11.2005 02:00 10.5 C 93 % 1021.7 hPa 0.6 l/m 11.2 km/h (2 Bft) W-NW 0.00 h 0 lux 9.4 C 10.5 C
05.11.2005 03:00 10.5 C 93 % 1022.3 hPa 0.6 l/m 4.5 km/h (1 Bft) W-NW 0.00 h 0 lux 9.4 C 10.5 C
05.11.2005 04:00 10.3 C 94 % 1022.6 hPa 0.6 l/m 0.1 km/h (0 Bft) N 0.00 h 0 lux 9.3 C 10.3 C
05.11.2005 05:00 10.1 C 96 % 1023.4 hPa 0.6 l/m 3.6 km/h (1 Bft) SO 0.00 h 0 lux 9.5 C 10.1 C
05.11.2005 06:00 10.1 C 96 % 1023.4 hPa 0.0 l/m 2.3 km/h (1 Bft) SO 0.00 h 0 lux 9.6 C 10.1 C
05.11.2005 07:00 10.1 C 96 % 1024.2 hPa 0.3 l/m 4.8 km/h (1 Bft) W-NW 0.00 h 478 lux 9.5 C 10.0 C
05.11.2005 08:00 9.9 C 94 % 1025.1 hPa 0.0 l/m 4.3 km/h (1 Bft) W-NW 0.00 h 2.77 klux 9.0 C 9.4 C
05.11.2005 09:00 10.0 C 90 % 1025.5 hPa 0.0 l/m 1.6 km/h (1 Bft) W 0.00 h 8.74 klux 8.5 C 9.8 C
05.11.2005 10:00 10.3 C 84 % 1026.4 hPa 0.0 l/m 5.2 km/h (1 Bft) W-NW 0.00 h 16.9 klux 7.7 C 10.3 C
05.11.2005 11:00 10.3 C 81 % 1026.5 hPa 0.0 l/m 6.9 km/h (2 Bft) W-NW 0.00 h 19.3 klux 7.2 C 10.3 C
05.11.2005 12:00 11.3 C 77 % 1026.3 hPa 0.0 l/m 4.3 km/h (1 Bft) W 0.47 h 44.3 klux 7.3 C 11.3 C
05.11.2005 13:00 12.1 C 64 % 1026.2 hPa 0.0 l/m 15.5 km/h (3 Bft) W-NW 0.40 h 30.2 klux 5.5 C 12.1 C
05.11.2005 14:00 12.6 C 58 % 1026.3 hPa 0.0 l/m 11.8 km/h (2 Bft) W-NW 0.90 h 43.0 klux 4.4 C 12.6 C
05.11.2005 15:00 12.8 C 54 % 1027.2 hPa 0.0 l/m 13.5 km/h (3 Bft) W-NW 1.00 h 30.2 klux 3.7 C 12.8 C
05.11.2005 16:00 10.9 C 59 % 1027.4 hPa 0.0 l/m 7.2 km/h (2 Bft) W-NW 0.67 h 7.10 klux 3.2 C 10.9 C
05.11.2005 17:00 8.7 C 72 % 1027.7 hPa 0.3 l/m 1.5 km/h (1 Bft) S 0.00 h 237 lux 3.9 C 8.6 C
05.11.2005 18:00 7.2 C 85 % 1028.0 hPa 0.0 l/m 1.9 km/h (1 Bft) S 0.00 h 0 lux 4.7 C 7.0 C
05.11.2005 19:00 6.8 C 89 % 1028.0 hPa 0.0 l/m 2.0 km/h (1 Bft) O-SO 0.00 h 0 lux 5.1 C 6.7 C
05.11.2005 20:00 5.9 C 92 % 1028.1 hPa 0.0 l/m 2.4 km/h (1 Bft) O-SO 0.00 h 0 lux 4.8 C 5.5 C
05.11.2005 21:00 5.0 C 95 % 1028.3 hPa 0.0 l/m 0.0 km/h (0 Bft) N 0.00 h 0 lux 4.3 C 5.0 C
05.11.2005 22:00 4.4 C 95 % 1028.8 hPa 0.0 l/m 0.3 km/h (0 Bft) SO 0.00 h 0 lux 3.7 C 4.4 C
05.11.2005 23:00 3.9 C 96 % 1030.5 hPa 0.0 l/m 0.0 km/h (0 Bft) N 0.00 h 0 lux 3.3 C 3.9 C
06.11.2005 00:00 4.4 C 99 % 1030.4 hPa 0.0 l/m 0.6 km/h (0 Bft) O-SO 0.00 h 0 lux 4.2 C 4.3 C
06.11.2005 01:00 4.4 C 100 % 1030.4 hPa 0.0 l/m 0.6 km/h (0 Bft) O-SO 0.00 h 0 lux 4.4 C 4.3 C
06.11.2005 02:00 4.3 C 100 % 1030.4 hPa 0.0 l/m 0.2 km/h (0 Bft) O-SO 0.00 h 0 lux 4.3 C 4.3 C
06.11.2005 03:00 3.7 C 100 % 1030.5 hPa 0.0 l/m 0.1 km/h (0 Bft) O-SO 0.00 h 0 lux 3.7 C 3.7 C
06.11.2005 04:00 3.8 C 100 % 1030.5 hPa 0.0 l/m 0.0 km/h (0 Bft) N 0.00 h 0 lux 3.8 C 3.8 C
06.11.2005 05:00 3.9 C 100 % 1029.6 hPa 0.0 l/m 0.0 km/h (0 Bft) N 0.00 h 0 lux 3.9 C 3.9 C
06.11.2005 06:00 3.7 C 100 % 1029.5 hPa 0.0 l/m 0.4 km/h (0 Bft) W-NW 0.00 h 0 lux 3.7 C 3.6 C
06.11.2005 07:00 3.5 C 100 % 1029.4 hPa 0.0 l/m 0.2 km/h (0 Bft) W-NW 0.00 h 476 lux 3.5 C 3.5 C
06.11.2005 08:00 3.2 C 100 % 1029.6 hPa 0.0 l/m 0.6 km/h (0 Bft) W-NW 0.00 h 3.39 klux 3.2 C 3.1 C
06.11.2005 09:00 3.9 C 100 % 1028.8 hPa 0.0 l/m 0.2 km/h (0 Bft) N 0.23 h 19.1 klux 3.9 C 3.9 C
06.11.2005 10:00 5.9 C 93 % 1028.1 hPa 0.0 l/m 3.6 km/h (1 Bft) O-SO 0.27 h 26.9 klux 4.8 C 5.2 C
06.11.2005 11:00 7.2 C 86 % 1027.8 hPa 0.0 l/m 4.3 km/h (1 Bft) O-SO 0.93 h 40.5 klux 5.0 C 6.5 C
06.11.2005 12:00 8.6 C 79 % 1026.7 hPa 0.0 l/m 2.0 km/h (1 Bft) O-SO 1.00 h 41.1 klux 5.1 C 8.4 C
06.11.2005 13:00 9.5 C 74 % 1026.6 hPa 0.0 l/m 1.4 km/h (1 Bft) O-SO 1.00 h 34.9 klux 5.2 C 9.5 C
06.11.2005 14:00 9.8 C 74 % 1025.6 hPa 0.0 l/m 6.0 km/h (2 Bft) O-SO 0.37 h 23.8 klux 5.5 C 9.2 C
06.11.2005 15:00 10.2 C 71 % 1025.5 hPa 0.0 l/m 5.9 km/h (2 Bft) SO 1.00 h 31.0 klux 5.2 C 10.2 C
06.11.2005 16:00 9.1 C 75 % 1025.6 hPa 0.0 l/m 3.5 km/h (1 Bft) O-SO 0.87 h 9.7 klux 4.9 C 8.7 C
06.11.2005 17:00 6.7 C 85 % 1026.4 hPa 0.0 l/m 2.7 km/h (1 Bft) SO 0.00 h 254 lux 4.4 C 6.3 C
06.11.2005 18:00 6.5 C 91 % 1027.0 hPa 0.0 l/m 2.2 km/h (1 Bft) O-SO 0.00 h 0 lux 5.2 C 6.2 C
06.11.2005 19:00 7.2 C 92 % 1026.9 hPa 0.0 l/m 0.0 km/h (0 Bft) N 0.00 h 0 lux 5.9 C 7.2 C
06.11.2005 20:00 7.4 C 91 % 1026.9 hPa 0.0 l/m 0.0 km/h (0 Bft) N 0.00 h 0 lux 5.9 C 7.4 C
06.11.2005 21:00 7.5 C 90 % 1026.9 hPa 0.0 l/m 0.0 km/h (0 Bft) N 0.00 h 0 lux 6.0 C 7.5 C
06.11.2005 22:00 7.6 C 90 % 1026.8 hPa 0.0 l/m 0.0 km/h (0 Bft) N 0.00 h 0 lux 6.1 C 7.6 C
06.11.2005 23:00 7.6 C 90 % 1025.8 hPa 0.0 l/m 0.0 km/h (0 Bft) N 0.00 h 0 lux 6.2 C 7.6 C
Min-Datum _ 06.11.05 05.11.05 31.10.05 - 31.10.05 - - - 05.11.05 06.11.05
_ Min-Zeit 08:18 15:36 14:26 - 00:01 - - - 15:36 08:26
Minimum _ 2.9 C 49 % 1012.3 hPa - 0.0 km/h (0 Bft) - - - 2.5 C 1.5 C
Max-Datum _ 03.11.05 31.10.05 06.11.05 03.11.05 05.11.05 - 31.10.05 01.11.05 01.11.05 03.11.05
_ Max-Zeit 14:25 01:23 03:52 04:05 00:31 - 12:03 13:17 09:32 14:25
Maximum _ 18.5 C 100 % 1030.6 hPa 1.3 l/m 33.1 km/h
W-NW (5 Bft)
- 0.05 h 78.9 klux 12.5 C 18.5 C
Durchschnitt _ 10.4 C 87 % 1020.8 hPa #8.8 l/m 2.6 km/h (1 Bft) O-SO #25:08 h 8.65 klux 8.1 C 10.3 C
© Kaiko 2005